Terminal Aerodrome Forecast
Issued by NWS

Home | Current Version | Previous Version | Text Only | Print | Product List | Glossary On
Versions: 1 2 3 4 5 6 7 8 9 10 11 12 13 14 15 16
000
FTUS42 KGSP 302347
TAFAND
TAF
KAND 302347Z 3100/3124 09003KT P6SM SCT070 SCT100
     FM310300 14010KT P6SM VCTS OVC050CB
      TEMPO 3103/3107 4SM -SHRA OVC025
     FM310700 17010KT 6SM BR VCTS OVC035CB
     FM310900 20009KT P6SM SHRA OVC030 PROB30 3109/3112 2SM TSRA BR
      OVC015CB
     FM311200 21009KT 3SM -SHRA BR OVC015
     FM311400 23012KT P6SM SCT025 BKN070
     FM312000 26010KT P6SM FEW045=

USA.gov is the U.S. government's official web portal to all federal, state and local government web resources and services.